Time;durP1;ratioP1;P1;durP2;ratioP2;P2;SDS_P1;SDS_P2;PMS_P1;PMS_P2;Temp;Humidity;BMP_temperature;BMP_pressure;BME280_temperature;BME280_humidity;BME280_pressure;Samples;Min_cycle;Max_cycle;Signal;HPM_P1;HPM_P2
2021/06/08 00:02:14;;;;;;;15.20;13.70;;;17.70;83.20;;;;;;5177392;27;20069;-91
2021/06/08 00:04:46;;;;;;;15.93;14.32;;;17.60;83.10;;;;;;5176566;27;20046;-90
2021/06/08 00:07:13;;;;;;;15.38;13.88;;;17.60;84.30;;;;;;5177587;27;20477;-91
2021/06/08 00:09:38;;;;;;;16.45;14.85;;;17.60;83.20;;;;;;5177375;27;20098;-93
2021/06/08 00:12:04;;;;;;;15.50;13.98;;;17.60;83.50;;;;;;5176965;27;20396;-92
2021/06/08 00:14:30;;;;;;;16.30;14.60;;;17.50;83.40;;;;;;5178060;27;20050;-93
2021/06/08 00:16:55;;;;;;;16.45;14.75;;;17.50;83.50;;;;;;5177930;27;20054;-92
2021/06/08 00:19:21;;;;;;;17.23;14.40;;;17.40;83.60;;;;;;5178544;27;20125;-92
2021/06/08 00:21:47;;;;;;;16.80;15.10;;;17.40;83.60;;;;;;5177900;27;20039;-92
2021/06/08 00:24:14;;;;;;;16.75;14.98;;;17.40;83.50;;;;;;5178145;27;20054;-92
2021/06/08 00:26:39;;;;;;;17.48;15.60;;;17.30;83.60;;;;;;5178642;27;20057;-91
2021/06/08 00:29:05;;;;;;;17.55;15.70;;;17.30;83.70;;;;;;5177714;27;20046;-94
2021/06/08 00:31:31;;;;;;;17.15;15.35;;;17.30;83.80;;;;;;5177606;27;20043;-92
2021/06/08 00:33:56;;;;;;;17.15;15.45;;;17.20;83.60;;;;;;5165040;27;20042;-91
2021/06/08 00:36:22;;;;;;;18.15;16.25;;;17.20;83.70;;;;;;5156788;27;20042;-93
2021/06/08 00:38:48;;;;;;;17.95;16.05;;;17.20;83.60;;;;;;5156801;27;20546;-92
2021/06/08 00:41:13;;;;;;;19.55;16.85;;;17.10;83.70;;;;;;5157029;27;20061;-92
2021/06/08 00:43:44;;;;;;;18.63;16.70;;;17.10;84.00;;;;;;5156580;27;20175;-93
2021/06/08 00:46:11;;;;;;;18.40;16.50;;;17.10;84.00;;;;;;5156328;27;20046;-91
2021/06/08 00:48:37;;;;;;;19.20;16.55;;;17.10;84.40;;;;;;5156696;27;20508;-89
2021/06/08 00:51:17;;;;;;;17.98;16.08;;;17.10;84.30;;;;;;5156136;27;20102;-91
2021/06/08 00:53:42;;;;;;;18.67;16.52;;;17.00;84.20;;;;;;5156465;27;20077;-90
2021/06/08 00:56:08;;;;;;;17.55;15.75;;;17.00;84.10;;;;;;5156313;27;20442;-91
2021/06/08 00:58:34;;;;;;;17.90;16.08;;;17.00;84.20;;;;;;5155945;27;20042;-91
2021/06/08 01:01:04;;;;;;;18.30;16.40;;;17.00;84.30;;;;;;5156114;27;20080;-91
2021/06/08 01:03:32;;;;;;;18.70;16.73;;;16.90;84.30;;;;;;5166823;27;20050;-91
2021/06/08 01:05:58;;;;;;;19.27;16.80;;;16.90;84.40;;;;;;5175818;27;20435;-90
2021/06/08 01:08:24;;;;;;;18.52;16.52;;;16.90;84.50;;;;;;5176637;27;20556;-91
2021/06/08 01:10:50;;;;;;;18.98;16.88;;;16.90;84.70;;;;;;5176589;27;20138;-90
2021/06/08 01:13:16;;;;;;;18.58;16.58;;;16.90;84.80;;;;;;5175784;27;20042;-91
2021/06/08 01:15:41;;;;;;;18.67;16.67;;;16.90;84.90;;;;;;5177010;27;20070;-90
2021/06/08 01:18:07;;;;;;;17.85;15.98;;;16.90;84.80;;;;;;5176764;27;20042;-90
2021/06/08 01:20:33;;;;;;;18.63;16.73;;;17.00;84.70;;;;;;5175887;27;20050;-92
2021/06/08 01:22:59;;;;;;;18.80;16.80;;;16.90;84.70;;;;;;5176069;27;20098;-91
2021/06/08 01:25:25;;;;;;;18.45;16.55;;;16.90;84.60;;;;;;5176923;27;20080;-91
2021/06/08 01:27:52;;;;;;;18.60;16.70;;;16.90;84.70;;;;;;5176040;27;20049;-91
2021/06/08 01:30:26;;;;;;;18.38;15.80;;;16.90;84.80;;;;;;5176743;27;20108;-91
2021/06/08 01:32:55;;;;;;;19.48;16.55;;;16.80;84.60;;;;;;5172963;27;20057;-92
2021/06/08 01:35:21;;;;;;;19.05;17.05;;;16.80;84.60;;;;;;5155452;27;20133;-91
2021/06/08 01:37:48;;;;;;;18.95;16.95;;;16.80;84.80;;;;;;5155144;27;20043;-90
2021/06/08 01:40:18;;;;;;;18.83;16.60;;;16.70;84.70;;;;;;5136090;27;20078;-91
2021/06/08 01:42:46;;;;;;;19.63;17.52;;;16.70;84.50;;;;;;5167232;27;20378;-91
2021/06/08 01:45:15;;;;;;;18.67;16.48;;;16.70;84.70;;;;;;5175632;27;20054;-90
2021/06/08 01:47:40;;;;;;;18.33;16.38;;;16.60;84.60;;;;;;5175459;27;20042;-90
2021/06/08 01:50:07;;;;;;;18.55;16.52;;;16.60;84.60;;;;;;5175438;27;20442;-92
2021/06/08 01:52:41;;;;;;;19.73;16.85;;;16.50;84.70;;;;;;5174319;27;20063;-91
2021/06/08 01:55:31;;;;;;;20.88;17.13;;;16.50;85.10;;;;;;5175123;27;20061;-92
2021/06/08 01:58:20;;;;;;;18.80;16.17;;;16.50;84.40;;;;;;5175682;27;20042;-90
2021/06/08 02:00:53;;;;;;;19.58;17.40;;;16.50;84.70;;;;;;5164054;27;20053;-90
2021/06/08 02:03:32;;;;;;;19.02;16.40;;;16.40;85.00;;;;;;5154968;27;20397;-90
2021/06/08 02:06:07;;;;;;;20.23;16.35;;;16.40;84.60;;;;;;5154792;27;20103;-90
2021/06/08 02:08:41;;;;;;;18.50;16.02;;;16.40;84.90;;;;;;5154049;27;20213;-89
2021/06/08 02:11:11;;;;;;;18.17;15.88;;;16.40;85.10;;;;;;5154309;27;20129;-88
2021/06/08 02:13:37;;;;;;;18.90;16.15;;;16.40;85.00;;;;;;5154737;27;20047;-89
2021/06/08 02:16:39;;;;;;;18.05;16.15;;;16.40;84.90;;;;;;5153799;27;20198;-89
2021/06/08 02:19:05;;;;;;;18.48;16.33;;;16.30;84.90;;;;;;5136277;27;20428;-89
2021/06/08 02:21:39;;;;;;;17.80;15.90;;;16.30;85.10;;;;;;5154734;27;20049;-89
2021/06/08 02:24:07;;;;;;;18.77;16.30;;;16.30;85.10;;;;;;5153416;27;20238;-89
2021/06/08 02:26:37;;;;;;;19.25;17.15;;;16.30;85.20;;;;;;5154604;27;20111;-89
2021/06/08 02:29:09;;;;;;;19.20;17.13;;;16.30;85.20;;;;;;5153513;27;20127;-90
2021/06/08 02:31:35;;;;;;;20.20;17.98;;;16.30;85.40;;;;;;5154371;27;20051;-90
2021/06/08 02:34:02;;;;;;;19.55;17.45;;;16.30;85.60;;;;;;5170346;27;20057;-90
2021/06/08 02:36:29;;;;;;;19.80;17.70;;;16.30;85.70;;;;;;5178545;27;20046;-91
2021/06/08 02:38:57;;;;;;;21.17;18.17;;;16.30;85.40;;;;;;5179634;27;20049;-90
2021/06/08 02:41:24;;;;;;;22.90;18.63;;;16.20;85.50;;;;;;5179555;27;20129;-90
2021/06/08 02:43:52;;;;;;;21.50;18.95;;;16.20;85.20;;;;;;5178905;27;20050;-91
2021/06/08 02:46:23;;;;;;;22.23;18.75;;;16.20;85.30;;;;;;5179394;27;20403;-89
2021/06/08 02:48:50;;;;;;;22.83;19.42;;;16.20;85.30;;;;;;5161527;27;20436;-89
2021/06/08 02:51:21;;;;;;;27.90;24.55;;;16.10;84.90;;;;;;5179369;27;20111;-90
2021/06/08 02:53:48;;;;;;;23.48;20.67;;;16.10;84.80;;;;;;5164604;27;20045;-88
2021/06/08 02:56:15;;;;;;;23.05;20.45;;;16.00;85.10;;;;;;5158260;27;20065;-88
2021/06/08 02:58:44;;;;;;;24.30;21.10;;;16.00;85.30;;;;;;5157356;27;20043;-90
2021/06/08 03:01:14;;;;;;;25.05;21.58;;;16.00;85.50;;;;;;5156366;27;20045;-90
2021/06/08 03:03:42;;;;;;;27.35;22.70;;;16.00;85.60;;;;;;5167413;27;20091;-88
2021/06/08 03:06:23;;;;;;;25.33;22.38;;;16.00;85.60;;;;;;5157128;27;20046;-88
2021/06/08 03:08:57;;;;;;;27.45;23.55;;;15.90;86.30;;;;;;5158086;27;20065;-89
2021/06/08 03:11:39;;;;;;;29.92;24.90;;;16.00;85.50;;;;;;5157078;27;20500;-87
2021/06/08 03:14:08;;;;;;;27.85;24.10;;;15.90;85.50;;;;;;5160238;27;20034;-89
2021/06/08 03:16:38;;;;;;;28.75;24.50;;;15.90;85.90;;;;;;5157712;27;20046;-90
2021/06/08 03:19:09;;;;;;;29.00;25.08;;;15.90;86.20;;;;;;5157266;27;20050;-91
2021/06/08 03:21:40;;;;;;;29.52;25.77;;;15.90;86.10;;;;;;5157527;27;20050;-91
2021/06/08 03:24:09;;;;;;;31.25;26.40;;;15.90;86.00;;;;;;5157943;27;20066;-89
2021/06/08 03:26:36;;;;;;;32.47;27.77;;;15.90;86.10;;;;;;5156743;27;20039;-90
2021/06/08 03:29:07;;;;;;;34.88;27.90;;;15.80;86.10;;;;;;5157887;27;20069;-90
2021/06/08 03:31:39;;;;;;;34.45;27.83;;;15.80;86.20;;;;;;5157899;27;20043;-91
2021/06/08 03:34:06;;;;;;;33.78;28.33;;;15.80;86.10;;;;;;5158552;27;20066;-92
2021/06/08 03:36:34;;;;;;;34.80;28.08;;;15.80;86.00;;;;;;5157545;27;20486;-91
2021/06/08 03:39:01;;;;;;;35.90;29.20;;;15.80;86.00;;;;;;5158121;27;20180;-89
2021/06/08 03:41:27;;;;;;;34.33;28.48;;;15.80;86.00;;;;;;5156852;27;20046;-91
2021/06/08 03:43:55;;;;;;;33.30;28.48;;;15.80;86.00;;;;;;5157925;27;20142;-91
2021/06/08 03:46:25;;;;;;;37.20;29.85;;;15.80;85.90;;;;;;5157552;27;20108;-90
2021/06/08 03:48:57;;;;;;;35.42;28.85;;;15.80;86.20;;;;;;5157785;27;20050;-91
2021/06/08 03:51:30;;;;;;;36.05;30.35;;;15.80;86.10;;;;;;5157318;27;20046;-90
2021/06/08 03:53:57;;;;;;;35.10;29.45;;;15.80;86.20;;;;;;5156831;27;20043;-90
2021/06/08 03:56:24;;;;;;;38.78;30.25;;;15.70;86.10;;;;;;5157012;27;20494;-90
2021/06/08 03:58:52;;;;;;;36.67;29.52;;;15.70;87.10;;;;;;5157251;27;20493;-90
2021/06/08 04:01:20;;;;;;;36.30;29.83;;;15.70;86.10;;;;;;5156847;27;20055;-92
2021/06/08 04:03:48;;;;;;;36.72;29.45;;;15.70;86.20;;;;;;5175469;27;20129;-88
2021/06/08 04:06:15;;;;;;;35.20;29.48;;;15.70;86.10;;;;;;5177925;27;20137;-91
2021/06/08 04:08:41;;;;;;;36.20;29.13;;;15.70;86.10;;;;;;5176876;27;20519;-91
2021/06/08 04:11:10;;;;;;;34.90;29.50;;;15.70;86.00;;;;;;5177960;27;20042;-91
2021/06/08 04:13:39;;;;;;;34.92;29.85;;;15.60;86.10;;;;;;5177231;27;20053;-91
2021/06/08 04:16:08;;;;;;;34.15;28.65;;;15.60;86.30;;;;;;5177199;27;20043;-90
2021/06/08 04:18:36;;;;;;;32.40;27.08;;;15.60;86.20;;;;;;5177522;27;20054;-91
2021/06/08 04:21:02;;;;;;;34.80;27.88;;;15.60;85.90;;;;;;5177624;27;20047;-90
2021/06/08 04:23:29;;;;;;;33.22;27.05;;;15.60;86.00;;;;;;5175969;27;20049;-90
2021/06/08 04:25:56;;;;;;;34.75;28.58;;;15.60;86.00;;;;;;5177368;27;20126;-89
2021/06/08 04:28:23;;;;;;;32.33;27.20;;;15.60;86.20;;;;;;5176916;27;20438;-90
2021/06/08 04:30:51;;;;;;;32.67;27.95;;;15.60;86.50;;;;;;5177574;27;20054;-90
2021/06/08 04:33:25;;;;;;;31.38;26.92;;;15.60;86.60;;;;;;5177585;27;20042;-90
2021/06/08 04:35:53;;;;;;;31.92;26.10;;;15.60;86.70;;;;;;5176653;27;20046;-90
2021/06/08 04:38:19;;;;;;;31.80;25.23;;;15.60;86.60;;;;;;5177339;27;20374;-90
2021/06/08 04:40:47;;;;;;;30.38;25.58;;;15.60;86.60;;;;;;5176629;27;20091;-90
2021/06/08 04:43:14;;;;;;;29.15;24.95;;;15.60;86.60;;;;;;5176178;27;20576;-90
2021/06/08 04:45:40;;;;;;;28.42;24.48;;;15.60;86.50;;;;;;5177087;27;20133;-91
2021/06/08 04:48:16;;;;;;;28.73;23.77;;;15.60;86.50;;;;;;5177202;27;20050;-90
2021/06/08 04:50:44;;;;;;;29.15;24.13;;;15.60;86.60;;;;;;5176407;27;20073;-91
2021/06/08 04:53:11;;;;;;;27.20;23.58;;;15.60;86.60;;;;;;5176749;27;20042;-88
2021/06/08 04:55:53;;;;;;;26.92;22.70;;;15.50;86.70;;;;;;5176604;27;20137;-90
2021/06/08 04:58:28;;;;;;;25.08;21.67;;;15.60;86.60;;;;;;5176240;27;20050;-89
2021/06/08 05:01:12;;;;;;;26.08;22.80;;;15.60;86.80;;;;;;5171467;27;20418;-90
2021/06/08 05:03:41;;;;;;;25.08;21.63;;;15.60;86.70;;;;;;5155527;27;20047;-91
2021/06/08 05:06:12;;;;;;;26.17;20.70;;;15.50;86.70;;;;;;5155565;27;20051;-90
2021/06/08 05:08:47;;;;;;;23.55;19.73;;;15.60;86.80;;;;;;5156122;27;20039;-89
2021/06/08 05:11:21;;;;;;;22.33;19.25;;;15.50;86.90;;;;;;5161260;27;20113;-91
2021/06/08 05:13:52;;;;;;;22.83;19.95;;;15.50;86.50;;;;;;5164600;27;20049;-91
2021/06/08 05:16:18;;;;;;;21.85;19.42;;;15.60;86.70;;;;;;5164508;27;20481;-90
2021/06/08 05:18:48;;;;;;;23.88;19.13;;;15.50;86.70;;;;;;5163970;27;20454;-91
2021/06/08 05:21:18;;;;;;;23.13;19.27;;;15.60;86.90;;;;;;5162173;27;20050;-90
2021/06/08 05:23:51;;;;;;;20.63;18.10;;;15.50;86.80;;;;;;5176153;27;20065;-90
2021/06/08 05:26:24;;;;;;;20.90;18.55;;;15.60;86.60;;;;;;5175763;27;20125;-90
2021/06/08 05:29:07;;;;;;;20.17;18.00;;;15.50;86.50;;;;;;5158875;27;20442;-91
2021/06/08 05:31:34;;;;;;;19.13;16.67;;;15.50;86.80;;;;;;5156540;27;20124;-91
2021/06/08 05:34:06;;;;;;;18.70;16.58;;;15.60;86.40;;;;;;5156569;27;20038;-89
2021/06/08 05:36:37;;;;;;;18.95;16.95;;;15.50;86.40;;;;;;5156199;27;20089;-91
2021/06/08 05:39:05;;;;;;;19.38;16.27;;;15.50;86.70;;;;;;5155169;27;20668;-89
2021/06/08 05:41:31;;;;;;;18.45;16.42;;;15.50;86.50;;;;;;5157094;27;20050;-89
2021/06/08 05:43:57;;;;;;;18.88;16.52;;;15.60;86.60;;;;;;5155902;27;20046;-88
2021/06/08 05:46:25;;;;;;;20.67;16.35;;;15.60;86.50;;;;;;5154759;27;20046;-89
2021/06/08 05:48:51;;;;;;;18.02;15.68;;;15.60;86.60;;;;;;5155586;27;20086;-87
2021/06/08 05:51:18;;;;;;;18.85;16.58;;;15.60;86.60;;;;;;5154468;27;20070;-88
2021/06/08 05:53:47;;;;;;;17.17;14.80;;;15.60;86.60;;;;;;5154294;27;20050;-91
2021/06/08 05:56:13;;;;;;;18.67;15.98;;;15.60;86.60;;;;;;5155575;27;20046;-85
2021/06/08 05:58:54;;;;;;;18.15;15.93;;;15.60;86.30;;;;;;5156187;27;20116;-90
2021/06/08 06:01:22;;;;;;;17.85;15.95;;;15.60;87.40;;;;;;5158554;27;20486;-89
2021/06/08 06:03:49;;;;;;;19.35;15.73;;;15.60;86.80;;;;;;5156307;27;20091;-93
2021/06/08 06:06:17;;;;;;;19.55;15.77;;;15.60;86.40;;;;;;5157490;27;20133;-93
2021/06/08 06:08:43;;;;;;;17.45;15.52;;;15.60;86.60;;;;;;5157219;27;20058;-93
2021/06/08 06:11:10;;;;;;;17.15;14.32;;;15.60;86.80;;;;;;5159731;27;20043;-90
2021/06/08 06:13:46;;;;;;;18.50;15.13;;;15.60;86.90;;;;;;5164478;27;20046;-91
2021/06/08 06:16:15;;;;;;;18.45;14.70;;;15.60;86.50;;;;;;5159600;27;20043;-90
2021/06/08 06:18:42;;;;;;;16.90;14.98;;;15.60;86.70;;;;;;5162979;27;20046;-88
2021/06/08 06:21:24;;;;;;;19.02;15.52;;;15.60;86.80;;;;;;5154767;27;20051;-88
2021/06/08 06:23:50;;;;;;;17.75;14.63;;;15.60;86.90;;;;;;5155487;27;20402;-91
2021/06/08 06:26:19;;;;;;;16.13;14.05;;;15.60;86.90;;;;;;5174948;27;20043;-90
2021/06/08 06:29:05;;;;;;;15.10;13.50;;;15.70;87.60;;;;;;5154201;27;20053;-90
2021/06/08 06:31:32;;;;;;;16.23;14.00;;;15.70;86.70;;;;;;5162842;27;20051;-90
2021/06/08 06:34:12;;;;;;;16.13;13.82;;;15.70;86.70;;;;;;5174170;27;20027;-90
2021/06/08 06:36:59;;;;;;;17.85;14.10;;;15.70;86.70;;;;;;5158542;27;20049;-88
2021/06/08 06:39:34;;;;;;;15.02;13.30;;;15.70;86.60;;;;;;5154381;27;20043;-88
2021/06/08 06:42:02;;;;;;;16.05;13.30;;;15.80;86.60;;;;;;5154172;27;20798;-89
2021/06/08 06:44:31;;;;;;;17.92;14.40;;;15.80;86.50;;;;;;5159376;27;20046;-89
2021/06/08 06:46:57;;;;;;;15.35;13.75;;;15.80;86.30;;;;;;5166449;27;20042;-89
2021/06/08 06:49:24;;;;;;;18.00;14.32;;;15.80;86.30;;;;;;5174082;27;20042;-92
2021/06/08 06:51:53;;;;;;;16.73;13.30;;;15.80;86.30;;;;;;5155098;27;20073;-88
2021/06/08 06:54:24;;;;;;;14.68;12.73;;;15.80;86.20;;;;;;5161573;27;20052;-88
2021/06/08 06:56:52;;;;;;;16.48;13.82;;;15.80;86.40;;;;;;5174754;27;20070;-85
2021/06/08 06:59:19;;;;;;;15.00;13.13;;;15.90;86.50;;;;;;5160123;27;20053;-89
2021/06/08 07:01:47;;;;;;;15.13;12.82;;;15.90;86.60;;;;;;5178637;27;20103;-89
2021/06/08 07:04:14;;;;;;;14.32;12.30;;;16.00;86.60;;;;;;5179594;27;20047;-89
2021/06/08 07:06:45;;;;;;;14.90;12.85;;;16.00;86.60;;;;;;5173301;27;20497;-89
2021/06/08 07:09:11;;;;;;;14.20;12.38;;;16.10;86.60;;;;;;5160147;27;20095;-89
2021/06/08 07:11:38;;;;;;;14.82;12.25;;;16.10;86.40;;;;;;5168458;27;20069;-87
2021/06/08 07:14:05;;;;;;;14.95;13.20;;;16.10;86.30;;;;;;5157122;27;20410;-86
2021/06/08 07:16:32;;;;;;;13.85;12.35;;;16.20;86.30;;;;;;5153783;27;20039;-89
2021/06/08 07:18:58;;;;;;;14.68;12.70;;;16.20;86.20;;;;;;5153088;27;20131;-85
2021/06/08 07:21:25;;;;;;;14.70;12.57;;;16.30;86.10;;;;;;5157211;27;20070;-84
2021/06/08 07:23:55;;;;;;;16.33;13.48;;;16.30;86.10;;;;;;5158838;27;20057;-85
2021/06/08 07:26:25;;;;;;;15.52;13.70;;;16.40;86.00;;;;;;5173975;27;20043;-84
2021/06/08 07:29:09;;;;;;;16.00;12.88;;;16.50;85.90;;;;;;5170723;27;20052;-84
2021/06/08 07:31:51;;;;;;;14.30;11.70;;;16.60;86.00;;;;;;5159829;27;20050;-85
2021/06/08 07:34:25;;;;;;;13.43;11.93;;;16.70;85.70;;;;;;5162600;27;20042;-87
2021/06/08 07:36:55;;;;;;;14.13;12.25;;;16.70;85.60;;;;;;5166933;27;20047;-85
2021/06/08 07:39:49;;;;;;;15.20;12.38;;;16.80;85.60;;;;;;5168121;27;20049;-83
2021/06/08 07:42:25;;;;;;;14.02;11.27;;;17.00;85.30;;;;;;5169263;27;20047;-85
2021/06/08 07:44:58;;;;;;;12.23;10.93;;;17.10;85.20;;;;;;5163121;27;20053;-83
2021/06/08 07:47:42;;;;;;;14.55;11.77;;;17.20;85.10;;;;;;5174330;27;20038;-85
2021/06/08 07:50:33;;;;;;;14.15;11.93;;;17.30;84.90;;;;;;5148213;27;20137;-85
2021/06/08 07:53:04;;;;;;;13.18;11.77;;;17.40;84.60;;;;;;5164781;27;20050;-85
2021/06/08 07:55:35;;;;;;;13.38;11.75;;;17.50;84.40;;;;;;5159323;27;20081;-85
2021/06/08 07:58:04;;;;;;;16.40;14.00;;;17.60;84.40;;;;;;5159767;27;20145;-85
2021/06/08 08:00:41;;;;;;;16.48;12.93;;;17.70;83.90;;;;;;5149443;27;20057;-85
2021/06/08 08:03:30;;;;;;;17.73;14.73;;;17.80;83.90;;;;;;5169601;27;20050;-85
2021/06/08 08:06:04;;;;;;;14.52;12.52;;;17.90;83.70;;;;;;5157330;27;20054;-85
2021/06/08 08:08:33;;;;;;;18.00;14.55;;;18.00;83.60;;;;;;5144745;27;20095;-85
2021/06/08 08:11:05;;;;;;;12.80;11.40;;;18.10;83.60;;;;;;5146830;27;20067;-85
2021/06/08 08:13:33;;;;;;;18.85;14.23;;;18.20;83.70;;;;;;5171991;27;20125;-85
2021/06/08 08:16:19;;;;;;;15.27;12.73;;;18.30;83.50;;;;;;5147081;27;20034;-85
2021/06/08 08:18:46;;;;;;;15.05;12.70;;;18.40;83.50;;;;;;5167233;27;20122;-85
2021/06/08 08:21:15;;;;;;;14.88;12.80;;;18.50;83.30;;;;;;5165109;27;20038;-85
2021/06/08 08:23:42;;;;;;;17.83;14.23;;;18.60;83.20;;;;;;5157970;27;20901;-85
2021/06/08 08:26:28;;;;;;;18.10;15.38;;;18.70;83.10;;;;;;5146877;27;20058;-85
2021/06/08 08:29:10;;;;;;;19.38;15.52;;;18.80;82.90;;;;;;5160191;27;20139;-85
2021/06/08 08:31:37;;;;;;;16.25;14.00;;;18.90;82.60;;;;;;5157170;27;20517;-84
2021/06/08 08:34:05;;;;;;;15.68;12.85;;;19.00;82.60;;;;;;5159602;27;20405;-85
2021/06/08 08:36:34;;;;;;;15.40;13.20;;;19.10;82.80;;;;;;5167794;27;20390;-85
2021/06/08 08:39:01;;;;;;;15.75;13.65;;;19.20;83.00;;;;;;5167500;27;20534;-85
2021/06/08 08:41:28;;;;;;;16.83;13.70;;;19.30;82.80;;;;;;5160682;27;20046;-85
2021/06/08 08:44:09;;;;;;;16.83;14.65;;;19.40;82.50;;;;;;5160152;27;20042;-84
2021/06/08 08:46:54;;;;;;;17.85;14.15;;;19.50;82.10;;;;;;5150012;27;20051;-85
2021/06/08 08:49:39;;;;;;;17.27;14.77;;;19.50;81.40;;;;;;5171758;27;20136;-84
2021/06/08 08:52:07;;;;;;;14.50;12.93;;;19.60;81.30;;;;;;5159186;27;20046;-85
2021/06/08 08:54:47;;;;;;;16.40;12.77;;;19.70;81.80;;;;;;5165990;27;20058;-85
2021/06/08 08:57:18;;;;;;;16.80;13.77;;;19.80;81.80;;;;;;5159484;27;20103;-85
2021/06/08 09:00:03;;;;;;;20.75;15.70;;;19.90;80.50;;;;;;5168639;27;20041;-85
2021/06/08 09:02:49;;;;;;;15.43;12.98;;;20.00;79.00;;;;;;5146760;27;20052;-86
2021/06/08 09:05:25;;;;;;;16.13;13.05;;;20.00;79.70;;;;;;5166739;27;20046;-86
2021/06/08 09:07:51;;;;;;;14.23;11.65;;;20.20;80.50;;;;;;5150735;27;20469;-86
2021/06/08 09:10:20;;;;;;;13.50;10.88;;;20.30;80.80;;;;;;5154774;27;20050;-87
2021/06/08 09:12:50;;;;;;;13.73;10.70;;;20.40;79.40;;;;;;5162841;27;20042;-86
2021/06/08 09:15:16;;;;;;;13.15;10.93;;;20.40;79.70;;;;;;5161899;27;20352;-86
2021/06/08 09:17:45;;;;;;;11.90;9.15;;;20.50;80.10;;;;;;5153761;27;20046;-87
2021/06/08 09:20:13;;;;;;;12.20;10.13;;;20.70;78.70;;;;;;5166186;27;20042;-86
2021/06/08 09:22:55;;;;;;;11.57;9.50;;;20.80;78.80;;;;;;5163508;27;20485;-86
2021/06/08 09:25:35;;;;;;;10.80;8.88;;;20.80;77.80;;;;;;5165290;27;20451;-85
2021/06/08 09:28:28;;;;;;;12.35;9.75;;;20.90;77.80;;;;;;5154920;27;20047;-86
2021/06/08 09:31:00;;;;;;;10.98;8.80;;;21.00;78.90;;;;;;5164788;27;20075;-86
2021/06/08 09:33:29;;;;;;;11.88;9.75;;;21.10;77.70;;;;;;5160087;27;20050;-86
2021/06/08 09:36:01;;;;;;;11.63;9.00;;;21.20;78.10;;;;;;5174242;27;20050;-87
2021/06/08 09:38:43;;;;;;;11.93;7.57;;;21.30;78.80;;;;;;5167760;27;20101;-86
2021/06/08 09:41:14;;;;;;;11.35;8.80;;;21.40;75.70;;;;;;5159612;27;20046;-86
2021/06/08 09:43:57;;;;;;;12.68;8.52;;;21.50;77.60;;;;;;5156675;27;20090;-87
2021/06/08 09:46:44;;;;;;;11.38;8.43;;;21.60;77.80;;;;;;5159758;27;20046;-86
2021/06/08 09:49:11;;;;;;;11.27;8.38;;;21.70;77.60;;;;;;5167293;27;20046;-87
2021/06/08 09:51:58;;;;;;;10.63;8.48;;;21.80;77.80;;;;;;5158021;27;20478;-87
2021/06/08 09:54:28;;;;;;;13.98;8.98;;;21.90;76.40;;;;;;5160418;27;20046;-87
2021/06/08 09:57:14;;;;;;;10.32;8.15;;;22.00;72.90;;;;;;5163864;27;20047;-87
2021/06/08 09:59:59;;;;;;;10.80;8.15;;;22.00;72.50;;;;;;5167736;27;20445;-88
2021/06/08 10:02:47;;;;;;;10.18;7.90;;;22.10;74.20;;;;;;5153977;27;20042;-86
2021/06/08 10:05:22;;;;;;;11.10;7.65;;;22.20;72.90;;;;;;5168442;27;20094;-92
2021/06/08 10:08:07;;;;;;;10.73;8.20;;;22.30;75.20;;;;;;5165215;27;20061;-93
2021/06/08 10:10:41;;;;;;;11.82;7.95;;;22.40;76.50;;;;;;5166384;27;20117;-93
2021/06/08 10:13:14;;;;;;;10.75;7.90;;;22.60;77.10;;;;;;5162468;27;20074;-87
2021/06/08 10:16:04;;;;;;;8.80;6.80;;;22.60;76.60;;;;;;5172665;27;20121;-93
2021/06/08 10:18:50;;;;;;;9.48;6.90;;;22.70;74.20;;;;;;5153776;27;20102;-87
2021/06/08 10:21:31;;;;;;;9.63;6.97;;;22.80;74.90;;;;;;5163656;27;20541;-87
2021/06/08 10:24:12;;;;;;;9.82;7.00;;;22.90;75.60;;;;;;5164026;27;20046;-89
2021/06/08 10:26:41;;;;;;;9.02;6.25;;;23.00;75.60;;;;;;5167815;27;20137;-88
2021/06/08 10:29:10;;;;;;;8.55;6.10;;;23.10;72.80;;;;;;5164775;27;20106;-90
2021/06/08 10:31:39;;;;;;;10.23;6.18;;;23.20;73.40;;;;;;5167464;27;20125;-87
2021/06/08 10:34:06;;;;;;;9.23;5.65;;;23.30;74.70;;;;;;5157169;27;20042;-89
2021/06/08 10:36:36;;;;;;;7.40;5.03;;;23.40;74.50;;;;;;5168850;27;20057;-88
2021/06/08 10:39:07;;;;;;;8.02;5.10;;;23.50;73.60;;;;;;5159366;27;20069;-89
2021/06/08 10:41:34;;;;;;;7.50;5.97;;;23.50;72.80;;;;;;5165883;27;20573;-89
2021/06/08 10:44:01;;;;;;;9.02;4.80;;;23.60;73.10;;;;;;5169817;27;20042;-89
2021/06/08 10:46:48;;;;;;;8.52;5.22;;;23.70;69.20;;;;;;5174019;27;20046;-90
2021/06/08 10:49:14;;;;;;;7.03;5.10;;;23.80;68.20;;;;;;5167887;27;20039;-89
2021/06/08 10:52:00;;;;;;;7.53;4.47;;;23.80;69.90;;;;;;5159394;27;20095;-89
2021/06/08 10:54:26;;;;;;;8.63;5.22;;;23.90;69.70;;;;;;5167903;27;20078;-91
2021/06/08 10:56:58;;;;;;;7.35;5.18;;;24.00;72.20;;;;;;5167637;27;20054;-88
2021/06/08 10:59:38;;;;;;;7.32;5.13;;;24.10;73.40;;;;;;5162633;27;20038;-89
2021/06/08 11:02:06;;;;;;;6.70;4.57;;;24.30;74.50;;;;;;5161491;27;20073;-89
2021/06/08 11:04:54;;;;;;;8.05;5.00;;;24.40;71.80;;;;;;5161990;27;20137;-88
2021/06/08 11:07:49;;;;;;;6.80;4.43;;;24.40;71.70;;;;;;5165823;27;20619;-87
2021/06/08 11:10:30;;;;;;;7.60;4.38;;;24.50;72.00;;;;;;5152691;27;20043;-87
2021/06/08 11:13:08;;;;;;;6.30;4.30;;;24.60;73.20;;;;;;5153202;27;20068;-87
2021/06/08 11:15:45;;;;;;;6.97;4.28;;;24.70;73.20;;;;;;5161122;27;20129;-88
2021/06/08 11:18:20;;;;;;;6.55;4.47;;;24.80;72.70;;;;;;5161414;27;20045;-88
2021/06/08 11:20:48;;;;;;;6.63;4.47;;;24.90;73.50;;;;;;5163990;27;20053;-88
2021/06/08 11:23:41;;;;;;;5.60;4.25;;;25.00;72.50;;;;;;5157117;27;20137;-88
2021/06/08 11:26:06;;;;;;;6.10;4.37;;;25.10;72.30;;;;;;5161515;27;20052;-88
2021/06/08 11:28:49;;;;;;;6.20;4.00;;;25.20;71.80;;;;;;5169822;27;20296;-88
2021/06/08 11:31:17;;;;;;;6.50;4.25;;;25.30;72.50;;;;;;5166062;27;20042;-89
2021/06/08 11:33:45;;;;;;;5.43;3.65;;;25.40;71.90;;;;;;5160600;27;20078;-89
2021/06/08 11:36:22;;;;;;;6.82;4.15;;;25.50;67.60;;;;;;5177624;27;20049;-89
2021/06/08 11:38:47;;;;;;;5.55;3.80;;;25.40;67.20;;;;;;5167328;27;20047;-88
2021/06/08 11:41:16;;;;;;;8.18;4.40;;;25.50;69.30;;;;;;5170701;27;20125;-88
2021/06/08 11:43:50;;;;;;;8.60;4.47;;;25.50;62.80;;;;;;5167604;27;20047;-88
2021/06/08 11:46:41;;;;;;;7.40;4.00;;;25.50;64.80;;;;;;5171736;27;20046;-87
2021/06/08 11:49:14;;;;;;;5.80;3.45;;;25.60;66.20;;;;;;5155354;27;20046;-87
2021/06/08 11:51:42;;;;;;;5.30;3.53;;;25.60;68.90;;;;;;5166143;27;20039;-89
2021/06/08 11:54:13;;;;;;;4.93;3.30;;;25.70;70.00;;;;;;5172101;27;20046;-89
2021/06/08 11:56:53;;;;;;;5.00;3.28;;;25.80;70.70;;;;;;5169936;27;20042;-93
2021/06/08 11:59:26;;;;;;;6.50;3.40;;;25.90;71.10;;;;;;5163700;27;20049;-90
2021/06/08 12:02:02;;;;;;;6.05;3.45;;;26.00;71.30;;;;;;5173676;27;20053;-89
2021/06/08 12:04:30;;;;;;;5.45;3.40;;;26.10;71.10;;;;;;5145282;27;20046;-90
2021/06/08 12:06:57;;;;;;;4.93;3.15;;;26.10;69.70;;;;;;5174941;27;20043;-92
2021/06/08 12:09:24;;;;;;;5.07;3.00;;;26.20;70.40;;;;;;5177767;27;20052;-93
2021/06/08 12:11:53;;;;;;;6.38;3.38;;;26.30;70.90;;;;;;5160196;27;20103;-90
2021/06/08 12:14:20;;;;;;;7.25;3.05;;;26.40;71.70;;;;;;5168496;27;20038;-92
2021/06/08 12:16:52;;;;;;;4.68;2.72;;;26.40;71.10;;;;;;5176418;27;20523;-93
2021/06/08 12:19:19;;;;;;;6.32;3.00;;;26.50;71.00;;;;;;5178083;27;20070;-92
2021/06/08 12:21:45;;;;;;;5.95;3.05;;;26.50;64.70;;;;;;5167862;27;20070;-91
2021/06/08 12:24:19;;;;;;;6.43;3.05;;;26.60;68.30;;;;;;5163315;27;20038;-89
2021/06/08 12:26:53;;;;;;;4.93;2.70;;;26.60;67.30;;;;;;5153626;27;20050;-87
2021/06/08 12:29:19;;;;;;;5.38;2.75;;;26.70;68.50;;;;;;5166736;27;20043;-89
2021/06/08 12:32:00;;;;;;;7.45;3.00;;;26.70;69.20;;;;;;5161929;27;20400;-89
2021/06/08 12:34:28;;;;;;;5.95;3.03;;;26.70;65.40;;;;;;5168985;27;20387;-88
2021/06/08 12:36:54;;;;;;;9.02;3.33;;;26.70;60.50;;;;;;5167009;27;20401;-89
2021/06/08 12:39:26;;;;;;;4.78;2.72;;;26.70;61.10;;;;;;5159429;27;20043;-88
2021/06/08 12:41:52;;;;;;;5.30;3.00;;;26.80;65.60;;;;;;5153580;27;20051;-88
2021/06/08 12:44:29;;;;;;;5.60;2.72;;;26.80;67.90;;;;;;5169693;27;20042;-89
2021/06/08 12:46:55;;;;;;;4.60;2.65;;;26.90;69.40;;;;;;5158197;27;20481;-90
2021/06/08 12:49:22;;;;;;;5.10;2.80;;;27.00;68.30;;;;;;5167845;27;20501;-87
2021/06/08 12:51:53;;;;;;;4.43;2.45;;;27.00;68.10;;;;;;5162811;27;20525;-88
2021/06/08 12:54:37;;;;;;;4.18;2.50;;;27.00;69.40;;;;;;5170466;27;20052;-88